Portada
METAR-TAF:

METAR-TAF

Aeroports :

Charleston, Carolina del Sud, Estats Units d'Amèrica

latitud: 32-53-56N, longitud: 080-02-26W, altitud: 14 m

Observació

L'informe es va fer fa 42 minuts, a les 21:56 UTC
Vent 6 kt del Est/Nord-Est
Temperatura 7°C
Humitat 45%
Pressió 1027 hPa
Visibilitat: 16.1 km
Cel clar

METAR: KCHS 132156Z 06006KT 10SM CLR 07/M04 A3032 RMK AO2 SLP267 T00721044 $

Hora: 17:38 (22:38 UTC)

Pronòstic

L'informe es va fer fa 5 hores i 3 minuts, a les 17:35 UTC
Pronòstic vàlid del 13 a les 18 UTC al 14 a les 18 UTC
Vent 10 kt del Nord/Nord-Est
Visibilitat: 10 km
Cel clar
A partir de les 14 a les 0300 UTC
Vent 8 kt del Nord/Nord-Est
Visibilitat: 10 km
Núvols disperses a una alçada de 2500 ft
Cel ennuvolat a una alçada de 4000 ft

TAF: KCHS 131735Z 1318/1418 02010KT P6SM SKC FM140300 03008KT P6SM SCT025 BKN040

Observacions i pronòstics meteorològics de més de 4000 aeroports (METAR i TAF).

Les estacions disponibles són els punts grocs i vermells al mapa.

Posi el ratolí al punt desitjat per veure el nom de l'estació.

Feu clic per veure les observacions i els pronòstics meteorològics.

Per canviar el mapa: feu clic els botons verds amb una creu de color negre per apropar; al botó verd amb un guió per allunyar la imatge; o en les fletxes verdes per a mapes adjacents.


METAR-TAF: